Royersford, Pennsylvania
Current Conditions -  °F | °C
As of 7:54 PM on Sunday 21 Dec 2014 (Local Time) from KPTW Reporting Station
Clear Clear  
Wind Chill: 25°   Ceiling: Unl
Heat Index: 25°   Visibility: 10mi
Dew Point: 20°   Wind: 0mph
Humidity: 81%   Direction: NA
Pressure: 30.35"   Gusts: NA
Location:  40.18°N, 75.54°W
Report Text: KPTW 220054Z AUTO 00000KT 10SM CLR M04/M07 A3035 RMK AO2 SLP279 T10391067
Loading
Personal Weather Stations






























Interactive Weather Map New forecast layout! Learn more

10-Day Weather Forecast

Advertisements
Track Severe Weather on mobile